Time,TemperatureF,DewpointF,PressureIn,WindDirection,WindDirectionDegrees,WindSpeedMPH,WindSpeedGustMPH,Humidity,HourlyPrecipIn,Conditions,Clouds,dailyrainin,SoftwareType,DateUTC
2013-01-26 00:01:00,36.9,36.9,29.58,SSW,202,2.2,6.9,100,0.02,RA,,0.00,WeatherDisplay:10.37,2013-01-26 00:01:00,
2013-01-26 00:06:00,36.9,36.9,29.57,South,180,4.5,8.1,100,0.02,RA,,0.00,WeatherDisplay:10.37,2013-01-26 00:06:00,
2013-01-26 00:11:00,36.7,36.7,29.57,WSW,248,2.2,5.8,100,0.02,CLR,,0.00,WeatherDisplay:10.37,2013-01-26 00:11:00,
2013-01-26 00:16:00,36.7,36.7,29.57,SE,135,5.4,10.4,100,0.02,,,0.00,WeatherDisplay:10.37,2013-01-26 00:16:00,
2013-01-26 00:21:00,36.7,36.7,29.57,South,180,4.5,8.3,100,0.02,,,0.00,WeatherDisplay:10.37,2013-01-26 00:21:00,
2013-01-26 00:26:00,36.7,36.7,29.57,South,180,5.4,8.3,100,0.02,,,0.00,WeatherDisplay:10.37,2013-01-26 00:26:00,
2013-01-26 00:31:00,36.7,36.7,29.57,South,180,3.8,9.8,100,0.01,,,0.00,WeatherDisplay:10.37,2013-01-26 00:31:00,
2013-01-26 00:36:00,36.7,36.7,29.57,South,180,4.5,9.2,100,0.01,,,0.00,WeatherDisplay:10.37,2013-01-26 00:36:00,
2013-01-26 00:41:00,36.5,36.5,29.57,SE,135,4.5,6.9,100,0.01,,,0.01,WeatherDisplay:10.37,2013-01-26 00:41:00,
2013-01-26 00:46:00,36.5,36.5,29.56,WSW,248,5.4,8.3,100,0.02,RA,,0.01,WeatherDisplay:10.37,2013-01-26 00:46:00,
2013-01-26 00:51:00,36.3,36.3,29.56,SSW,202,6.0,8.3,100,0.01,,,0.01,WeatherDisplay:10.37,2013-01-26 00:51:00,
2013-01-26 00:56:00,36.3,36.3,29.56,SE,135,4.5,6.9,100,0.01,CLR,,0.01,WeatherDisplay:10.37,2013-01-26 00:56:00,
2013-01-26 01:01:00,36.5,36.5,29.57,South,180,4.5,9.2,100,0.01,,,0.01,WeatherDisplay:10.37,2013-01-26 01:01:00,
2013-01-26 01:06:00,36.5,36.5,29.57,South,180,1.6,5.8,100,0.01,,,0.01,WeatherDisplay:10.37,2013-01-26 01:06:00,
2013-01-26 01:11:00,36.5,36.5,29.57,SE,135,3.1,6.0,100,0.01,,,0.01,WeatherDisplay:10.37,2013-01-26 01:11:00,
2013-01-26 01:16:00,36.5,36.5,29.57,SE,135,6.0,13.0,100,0.02,RA,,0.02,WeatherDisplay:10.37,2013-01-26 01:16:00,
2013-01-26 01:21:00,36.5,36.5,29.57,NW,315,4.5,9.2,100,0.02,RA,,0.02,WeatherDisplay:10.37,2013-01-26 01:21:00,
2013-01-26 01:26:00,36.3,36.3,29.57,SE,135,3.1,12.7,100,0.02,CLR,,0.02,WeatherDisplay:10.37,2013-01-26 01:26:00,
2013-01-26 01:32:00,36.1,36.1,29.57,WSW,248,5.4,11.5,100,0.04,RA,,0.04,WeatherDisplay:10.37,2013-01-26 01:32:00,
2013-01-26 01:37:00,36.1,36.1,29.57,SE,135,2.2,6.0,100,0.04,RA,,0.04,WeatherDisplay:10.37,2013-01-26 01:37:00,
2013-01-26 01:42:00,36.0,36.0,29.57,SE,135,2.2,10.4,100,0.02,,,0.04,WeatherDisplay:10.37,2013-01-26 01:42:00,
2013-01-26 01:47:00,36.0,36.0,29.57,SE,135,6.0,10.4,100,0.02,CLR,,0.04,WeatherDisplay:10.37,2013-01-26 01:47:00,
2013-01-26 01:52:00,35.8,35.8,29.57,SSE,158,3.8,6.9,100,0.04,RA,,0.05,WeatherDisplay:10.37,2013-01-26 01:52:00,
2013-01-26 01:57:00,35.8,35.8,29.58,SE,135,3.1,9.2,100,0.04,RA,,0.05,WeatherDisplay:10.37,2013-01-26 01:57:00,
2013-01-26 02:02:00,35.8,35.8,29.57,South,180,3.8,6.9,100,0.04,CLR,,0.05,WeatherDisplay:10.37,2013-01-26 02:02:00,
2013-01-26 02:07:00,35.8,35.8,29.57,SSE,158,3.1,6.0,100,0.05,RA,,0.06,WeatherDisplay:10.37,2013-01-26 02:07:00,
2013-01-26 02:12:00,35.8,35.8,29.58,South,180,3.1,6.0,100,0.05,RA,,0.06,WeatherDisplay:10.37,2013-01-26 02:12:00,
2013-01-26 02:17:00,35.8,35.8,29.58,SE,135,2.2,6.9,100,0.04,CLR,,0.06,WeatherDisplay:10.37,2013-01-26 02:17:00,
2013-01-26 02:22:00,35.8,35.8,29.57,SE,135,3.8,9.2,100,0.04,,,0.06,WeatherDisplay:10.37,2013-01-26 02:22:00,
2013-01-26 02:27:00,35.8,35.8,29.57,SSE,158,3.1,8.1,100,0.04,,,0.06,WeatherDisplay:10.37,2013-01-26 02:27:00,
2013-01-26 02:32:00,35.8,35.8,29.58,South,180,4.5,10.4,100,0.02,,,0.06,WeatherDisplay:10.37,2013-01-26 02:32:00,
2013-01-26 02:37:00,35.8,35.8,29.57,South,180,3.1,7.6,100,0.02,,,0.06,WeatherDisplay:10.37,2013-01-26 02:37:00,
2013-01-26 02:42:00,35.8,35.8,29.57,SSE,158,4.5,7.6,100,0.02,,,0.06,WeatherDisplay:10.37,2013-01-26 02:42:00,
2013-01-26 02:47:00,35.8,35.8,29.57,SE,135,3.1,9.2,100,0.02,,,0.06,WeatherDisplay:10.37,2013-01-26 02:47:00,
2013-01-26 02:52:00,35.8,35.8,29.57,South,180,5.4,9.2,100,0.01,CLR,,0.06,WeatherDisplay:10.37,2013-01-26 02:52:00,
2013-01-26 02:57:00,36.0,36.0,29.58,SE,135,3.8,9.2,100,0.01,CLR,,0.06,WeatherDisplay:10.37,2013-01-26 02:57:00,
2013-01-26 03:02:00,36.0,36.0,29.58,SSE,158,3.8,8.1,100,0.01,CLR,,0.06,WeatherDisplay:10.37,2013-01-26 03:02:00,
2013-01-26 03:07:00,36.0,36.0,29.58,WSW,248,0.7,5.8,100,0.00,,,0.06,WeatherDisplay:10.37,2013-01-26 03:07:00,
2013-01-26 03:12:00,36.0,36.0,29.57,NE,45,2.2,4.6,100,0.00,,,0.06,WeatherDisplay:10.37,2013-01-26 03:12:00,
2013-01-26 03:17:00,36.0,36.0,29.58,South,180,3.1,9.2,100,0.00,,,0.06,WeatherDisplay:10.37,2013-01-26 03:17:00,
2013-01-26 03:22:00,36.0,36.0,29.59,SSE,158,2.2,9.2,100,0.00,,,0.06,WeatherDisplay:10.37,2013-01-26 03:22:00,
2013-01-26 03:27:00,36.1,36.1,29.59,South,180,3.8,10.4,100,0.00,,,0.06,WeatherDisplay:10.37,2013-01-26 03:27:00,
2013-01-26 03:32:00,36.1,36.1,29.59,SE,135,3.1,8.1,100,0.00,,,0.06,WeatherDisplay:10.37,2013-01-26 03:32:00,
2013-01-26 03:37:00,36.1,36.1,29.59,West,270,1.6,4.5,100,0.00,,,0.06,WeatherDisplay:10.37,2013-01-26 03:37:00,
2013-01-26 03:42:00,36.1,36.1,29.59,SSW,202,3.1,5.8,100,0.00,,,0.06,WeatherDisplay:10.37,2013-01-26 03:42:00,
2013-01-26 03:47:00,36.1,36.1,29.60,South,180,2.2,5.8,100,0.00,,,0.06,WeatherDisplay:10.37,2013-01-26 03:47:00,
2013-01-26 03:52:00,36.1,36.1,29.60,South,180,1.6,4.6,100,0.00,,,0.06,WeatherDisplay:10.37,2013-01-26 03:52:00,
2013-01-26 03:57:00,36.1,36.1,29.60,South,180,0.7,2.3,100,0.00,,,0.06,WeatherDisplay:10.37,2013-01-26 03:57:00,
2013-01-26 04:02:00,36.1,36.1,29.60,SE,135,0.7,4.6,100,0.00,,,0.06,WeatherDisplay:10.37,2013-01-26 04:02:00,
2013-01-26 04:07:00,36.1,36.1,29.60,SE,135,0.0,2.3,100,0.00,,,0.06,WeatherDisplay:10.37,2013-01-26 04:07:00,
2013-01-26 04:12:00,36.1,36.1,29.61,SE,135,0.7,3.5,100,0.01,RA,,0.07,WeatherDisplay:10.37,2013-01-26 04:12:00,
2013-01-26 04:17:00,36.1,36.1,29.61,SE,135,0.7,2.3,100,0.01,RA,,0.07,WeatherDisplay:10.37,2013-01-26 04:17:00,
2013-01-26 04:22:00,36.1,36.1,29.62,NE,45,0.0,2.3,100,0.01,CLR,,0.07,WeatherDisplay:10.37,2013-01-26 04:22:00,
2013-01-26 04:27:00,36.3,36.3,29.62,SE,135,0.0,1.6,100,0.01,CLR,,0.07,WeatherDisplay:10.37,2013-01-26 04:27:00,
2013-01-26 04:32:00,36.3,36.3,29.62,SE,135,0.7,3.5,100,0.02,RA,,0.08,WeatherDisplay:10.37,2013-01-26 04:32:00,
2013-01-26 04:37:00,36.3,36.3,29.62,SE,135,0.0,3.5,100,0.02,RA,,0.08,WeatherDisplay:10.37,2013-01-26 04:37:00,
2013-01-26 04:42:00,36.3,36.3,29.62,South,180,0.7,2.3,100,0.02,CLR,,0.08,WeatherDisplay:10.37,2013-01-26 04:42:00,
2013-01-26 04:47:00,36.3,36.3,29.62,SE,135,0.0,2.3,100,0.02,CLR,,0.08,WeatherDisplay:10.37,2013-01-26 04:47:00,
2013-01-26 04:52:00,36.5,36.5,29.63,SE,135,0.0,1.1,100,0.02,CLR,,0.08,WeatherDisplay:10.37,2013-01-26 04:52:00,
2013-01-26 04:57:00,36.5,36.5,29.64,NE,45,0.0,0.7,100,0.02,CLR,,0.08,WeatherDisplay:10.37,2013-01-26 04:57:00,
2013-01-26 05:00:00,36.5,36.5,29.64,North,0,0.0,1.1,100,0.02,CLR,,0.08,WeatherDisplay:10.37,2013-01-26 05:00:00,
2013-01-26 05:01:00,36.5,36.5,29.64,North,0,0.0,1.6,100,0.02,CLR,,0.08,WeatherDisplay:10.37,2013-01-26 05:01:00,
2013-01-26 05:03:00,36.5,36.5,29.64,NE,45,0.0,1.1,100,0.02,CLR,,0.08,WeatherDisplay:10.37,2013-01-26 05:03:00,
2013-01-26 05:05:00,48.9,42.0,29.82,NW,305,1.0,4.0,77,0.00,-SN,-SN,0.11,WeatherDisplay:10.37,2013-01-26 05:05:00,
2013-01-26 05:08:00,36.5,36.5,29.63,NE,45,0.0,0.0,100,0.02,CLR,,0.08,WeatherDisplay:10.37,2013-01-26 05:08:00,
2013-01-26 05:10:00,49.1,42.2,29.83,NW,315,3.0,8.0,77,0.00,-SN,-SN,0.11,WeatherDisplay:10.37,2013-01-26 05:10:00,
2013-01-26 05:13:00,36.7,36.7,29.64,East,90,0.0,0.0,100,0.02,RA,,0.09,WeatherDisplay:10.37,2013-01-26 05:13:00,
2013-01-26 05:15:00,48.7,41.8,29.83,NW,322,1.0,8.0,77,0.00,-SN,-SN,0.11,WeatherDisplay:10.37,2013-01-26 05:15:00,
2013-01-26 05:18:00,36.7,36.7,29.64,East,90,0.0,1.1,100,0.02,RA,,0.09,WeatherDisplay:10.37,2013-01-26 05:18:00,
2013-01-26 05:20:00,48.7,41.8,29.83,NNW,346,1.0,5.0,77,0.00,-SN,-SN,0.11,WeatherDisplay:10.37,2013-01-26 05:20:00,
2013-01-26 05:23:00,36.7,36.7,29.65,NE,45,0.0,1.1,100,0.02,CLR,,0.09,WeatherDisplay:10.37,2013-01-26 05:23:00,
2013-01-26 05:25:00,49.3,42.4,29.82,ENE,59,1.0,4.0,77,0.00,-SN,-SN,0.11,WeatherDisplay:10.37,2013-01-26 05:25:00,
2013-01-26 05:28:00,36.7,36.7,29.64,East,90,0.0,0.0,100,0.02,CLR,,0.09,WeatherDisplay:10.37,2013-01-26 05:28:00,
2013-01-26 05:30:00,49.6,42.4,29.82,SE,129,1.0,4.0,76,0.00,-SN,-SN,0.11,WeatherDisplay:10.37,2013-01-26 05:30:00,
2013-01-26 05:33:00,36.7,36.7,29.64,South,180,1.6,3.1,100,0.01,CLR,,0.09,WeatherDisplay:10.37,2013-01-26 05:33:00,
2013-01-26 05:35:00,50.5,43.3,29.81,NE,47,1.0,3.0,76,0.00,-SN,-SN,0.11,WeatherDisplay:10.37,2013-01-26 05:35:00,
2013-01-26 05:38:00,36.9,36.9,29.64,East,90,0.0,0.0,100,0.01,CLR,,0.09,WeatherDisplay:10.37,2013-01-26 05:38:00,
2013-01-26 05:43:00,36.9,36.9,29.64,East,90,0.0,1.1,100,0.02,RA,,0.11,WeatherDisplay:10.37,2013-01-26 05:43:00,
2013-01-26 05:45:00,50.9,42.6,29.81,North,357,1.0,4.0,73,0.00,-SN,-SN,0.11,WeatherDisplay:10.37,2013-01-26 05:45:00,
2013-01-26 05:48:00,36.9,36.9,29.63,East,90,0.0,1.6,100,0.02,RA,,0.11,WeatherDisplay:10.37,2013-01-26 05:48:00,
2013-01-26 05:50:00,50.5,42.6,29.81,NNE,24,1.0,4.0,74,0.00,-SN,-SN,0.11,WeatherDisplay:10.37,2013-01-26 05:50:00,
2013-01-26 05:53:00,37.0,37.0,29.64,West,270,0.0,2.3,100,0.02,,,0.11,WeatherDisplay:10.37,2013-01-26 05:53:00,
2013-01-26 05:55:00,50.5,42.6,29.81,NW,326,1.0,4.0,74,0.00,-SN,-SN,0.11,WeatherDisplay:10.37,2013-01-26 05:55:00,
2013-01-26 05:58:00,37.0,37.0,29.65,NE,45,0.0,0.0,100,0.02,CLR,,0.11,WeatherDisplay:10.37,2013-01-26 05:58:00,
2013-01-26 06:00:00,49.8,41.9,29.82,North,4,2.0,4.0,74,0.00,-SN,-SN,0.11,WeatherDisplay:10.37,2013-01-26 06:00:00,
2013-01-26 06:03:00,37.2,37.2,29.65,WSW,248,0.0,1.1,100,0.02,CLR,,0.11,WeatherDisplay:10.37,2013-01-26 06:03:00,
2013-01-26 06:05:00,49.3,41.7,29.82,NNE,22,1.0,6.0,75,0.00,-SN,-SN,0.11,WeatherDisplay:10.37,2013-01-26 06:05:00,
2013-01-26 06:08:00,37.4,37.4,29.65,North,0,0.0,1.1,100,0.02,CLR,,0.11,WeatherDisplay:10.37,2013-01-26 06:08:00,
2013-01-26 06:13:00,37.4,37.4,29.66,North,0,0.0,1.6,100,0.01,CLR,,0.11,WeatherDisplay:10.37,2013-01-26 06:13:00,
2013-01-26 06:18:00,37.4,37.4,29.66,NE,45,0.0,1.6,100,0.01,CLR,,0.11,WeatherDisplay:10.37,2013-01-26 06:18:00,
2013-01-26 06:23:00,37.6,37.6,29.66,NW,315,0.0,3.5,100,0.01,CLR,,0.11,WeatherDisplay:10.37,2013-01-26 06:23:00,
2013-01-26 06:28:00,37.6,37.6,29.66,North,0,0.0,1.1,100,0.01,CLR,,0.11,WeatherDisplay:10.37,2013-01-26 06:28:00,
2013-01-26 06:33:00,37.6,37.6,29.66,South,180,1.6,4.5,100,0.01,CLR,,0.11,WeatherDisplay:10.37,2013-01-26 06:33:00,
2013-01-26 06:38:00,37.6,37.6,29.67,NW,315,0.7,3.5,100,0.01,CLR,,0.11,WeatherDisplay:10.37,2013-01-26 06:38:00,
2013-01-26 06:43:00,37.6,37.6,29.67,North,0,0.0,1.6,100,0.00,,,0.11,WeatherDisplay:10.37,2013-01-26 06:43:00,
2013-01-26 06:48:00,37.4,37.4,29.67,North,0,0.7,2.3,100,0.00,,,0.11,WeatherDisplay:10.37,2013-01-26 06:48:00,
2013-01-26 06:53:00,37.4,37.4,29.67,North,0,0.7,2.2,100,0.00,,,0.11,WeatherDisplay:10.37,2013-01-26 06:53:00,
2013-01-26 06:58:00,37.2,37.2,29.67,North,0,0.0,2.3,100,0.00,,,0.11,WeatherDisplay:10.37,2013-01-26 06:58:00,
2013-01-26 07:03:00,37.2,37.2,29.68,NE,45,0.0,3.8,100,0.00,,,0.11,WeatherDisplay:10.37,2013-01-26 07:03:00,
2013-01-26 07:08:00,37.2,37.2,29.68,NW,315,2.2,5.4,100,0.00,,,0.11,WeatherDisplay:10.37,2013-01-26 07:08:00,
2013-01-26 07:13:00,37.2,37.2,29.68,NNW,338,1.6,4.5,100,0.00,,,0.11,WeatherDisplay:10.37,2013-01-26 07:13:00,
2013-01-26 07:18:00,37.2,37.2,29.69,North,0,1.6,4.6,100,0.00,,,0.11,WeatherDisplay:10.37,2013-01-26 07:18:00,
2013-01-26 07:23:00,37.0,37.0,29.69,North,0,0.7,3.5,100,0.00,,,0.11,WeatherDisplay:10.37,2013-01-26 07:23:00,
2013-01-26 07:29:00,36.9,36.9,29.69,North,0,1.6,4.5,100,0.00,,,0.11,WeatherDisplay:10.37,2013-01-26 07:29:00,
2013-01-26 07:34:00,36.9,36.9,29.70,NW,315,1.6,3.8,100,0.00,,,0.11,WeatherDisplay:10.37,2013-01-26 07:34:00,
2013-01-26 07:39:00,37.0,37.0,29.71,North,0,0.0,4.6,100,0.00,,,0.11,WeatherDisplay:10.37,2013-01-26 07:39:00,
2013-01-26 07:44:00,37.0,37.0,29.71,North,0,0.0,3.5,100,0.00,,,0.11,WeatherDisplay:10.37,2013-01-26 07:44:00,
2013-01-26 07:49:00,37.0,37.0,29.71,North,0,0.7,3.5,100,0.00,,,0.11,WeatherDisplay:10.37,2013-01-26 07:49:00,
2013-01-26 07:54:00,37.0,37.0,29.71,West,270,0.0,3.5,100,0.00,,,0.11,WeatherDisplay:10.37,2013-01-26 07:54:00,
2013-01-26 07:59:00,37.0,37.0,29.72,North,0,0.7,3.1,100,0.00,,,0.11,WeatherDisplay:10.37,2013-01-26 07:59:00,
2013-01-26 08:04:00,37.0,37.0,29.73,North,0,0.0,2.3,100,0.00,,,0.11,WeatherDisplay:10.37,2013-01-26 08:04:00,
2013-01-26 08:09:00,37.0,37.0,29.73,NW,315,1.6,3.8,100,0.00,,,0.11,WeatherDisplay:10.37,2013-01-26 08:09:00,
2013-01-26 08:14:00,37.2,37.2,29.74,NW,315,0.7,3.8,100,0.00,,,0.11,WeatherDisplay:10.37,2013-01-26 08:14:00,
2013-01-26 08:19:00,37.4,37.4,29.74,NE,45,0.0,2.3,100,0.00,,,0.11,WeatherDisplay:10.37,2013-01-26 08:19:00,
2013-01-26 08:24:00,37.4,37.4,29.75,NNW,338,0.7,2.3,100,0.00,,,0.11,WeatherDisplay:10.37,2013-01-26 08:24:00,
2013-01-26 08:29:00,37.4,37.4,29.75,North,0,0.7,2.3,100,0.00,,,0.11,WeatherDisplay:10.37,2013-01-26 08:29:00,
2013-01-26 08:34:00,37.6,37.6,29.75,North,0,0.0,1.6,100,0.00,,,0.11,WeatherDisplay:10.37,2013-01-26 08:34:00,
2013-01-26 08:39:00,37.6,37.6,29.75,North,0,0.0,2.2,100,0.00,,,0.11,WeatherDisplay:10.37,2013-01-26 08:39:00,
2013-01-26 08:44:00,37.8,37.8,29.75,WSW,248,0.0,2.3,100,0.00,,,0.11,WeatherDisplay:10.37,2013-01-26 08:44:00,
2013-01-26 08:49:00,37.9,37.9,29.76,NW,315,0.0,2.3,100,0.00,,,0.11,WeatherDisplay:10.37,2013-01-26 08:49:00,
2013-01-26 08:54:00,37.9,37.9,29.76,NW,315,0.0,1.6,100,0.00,,,0.11,WeatherDisplay:10.37,2013-01-26 08:54:00,
2013-01-26 08:59:00,37.9,37.9,29.76,North,0,0.0,1.6,100,0.00,,,0.11,WeatherDisplay:10.37,2013-01-26 08:59:00,
2013-01-26 09:04:00,38.1,38.1,29.76,South,180,0.0,1.1,100,0.00,,,0.11,WeatherDisplay:10.37,2013-01-26 09:04:00,
2013-01-26 09:09:00,38.3,38.3,29.77,NNE,22,0.0,1.1,100,0.00,,,0.11,WeatherDisplay:10.37,2013-01-26 09:09:00,
2013-01-26 09:14:00,38.8,38.8,29.77,NE,45,0.0,1.1,100,0.00,,,0.11,WeatherDisplay:10.37,2013-01-26 09:14:00,
2013-01-26 09:19:00,39.4,39.4,29.77,NE,45,0.0,2.3,100,0.00,,,0.11,WeatherDisplay:10.37,2013-01-26 09:19:00,
2013-01-26 09:24:00,39.7,39.7,29.77,NE,45,0.0,1.1,100,0.00,,,0.11,WeatherDisplay:10.37,2013-01-26 09:24:00,
2013-01-26 09:29:00,40.1,40.1,29.77,NE,45,0.0,1.6,100,0.00,,,0.11,WeatherDisplay:10.37,2013-01-26 09:29:00,
2013-01-26 09:34:00,40.3,40.3,29.77,North,0,0.7,1.6,100,0.00,,,0.11,WeatherDisplay:10.37,2013-01-26 09:34:00,
2013-01-26 09:39:00,40.5,40.5,29.78,NE,45,0.0,3.5,100,0.00,,,0.11,WeatherDisplay:10.37,2013-01-26 09:39:00,
2013-01-26 09:44:00,41.2,41.2,29.78,East,90,0.0,2.3,100,0.00,,,0.11,WeatherDisplay:10.37,2013-01-26 09:44:00,
2013-01-26 09:49:00,41.7,41.7,29.79,NE,45,0.0,1.6,100,0.00,,,0.11,WeatherDisplay:10.37,2013-01-26 09:49:00,
2013-01-26 09:54:00,42.4,42.4,29.79,NE,45,0.0,1.6,100,0.00,,,0.11,WeatherDisplay:10.37,2013-01-26 09:54:00,
2013-01-26 09:59:00,42.6,42.6,29.80,North,0,0.0,1.6,100,0.00,,,0.11,WeatherDisplay:10.37,2013-01-26 09:59:00,
2013-01-26 10:04:00,42.8,42.5,29.80,NE,45,0.0,1.1,99,0.00,CLR,,0.11,WeatherDisplay:10.37,2013-01-26 10:04:00,
2013-01-26 10:09:00,43.5,42.7,29.80,NNE,22,0.7,2.3,97,0.00,CLR,,0.11,WeatherDisplay:10.37,2013-01-26 10:09:00,
2013-01-26 10:14:00,43.7,42.6,29.81,East,90,0.0,1.6,96,0.00,CLR,,0.11,WeatherDisplay:10.37,2013-01-26 10:14:00,
2013-01-26 10:19:00,44.6,43.3,29.81,North,0,0.7,3.5,95,0.00,CLR,,0.11,WeatherDisplay:10.37,2013-01-26 10:19:00,
2013-01-26 10:24:00,45.0,42.8,29.81,NW,315,0.7,3.5,92,0.00,CLR,,0.11,WeatherDisplay:10.37,2013-01-26 10:24:00,
2013-01-26 10:29:00,45.5,42.7,29.81,NE,45,0.7,3.5,90,0.00,CLR,,0.11,WeatherDisplay:10.37,2013-01-26 10:29:00,
2013-01-26 10:34:00,45.7,42.3,29.80,NE,45,1.6,4.6,88,0.00,CLR,,0.11,WeatherDisplay:10.37,2013-01-26 10:34:00,
2013-01-26 10:39:00,45.7,42.0,29.81,NW,315,1.6,5.8,87,0.00,CLR,,0.11,WeatherDisplay:10.37,2013-01-26 10:39:00,
2013-01-26 10:44:00,45.9,41.9,29.80,NNW,338,1.6,5.8,86,0.00,CLR,,0.11,WeatherDisplay:10.37,2013-01-26 10:44:00,
2013-01-26 10:49:00,45.9,41.9,29.81,NE,45,0.7,3.8,86,0.00,CLR,,0.11,WeatherDisplay:10.37,2013-01-26 10:49:00,
2013-01-26 10:54:00,46.6,42.3,29.81,North,0,1.6,3.8,85,0.00,CLR,,0.11,WeatherDisplay:10.37,2013-01-26 10:54:00,
2013-01-26 10:59:00,46.8,41.9,29.81,NE,45,1.6,5.8,83,0.00,CLR,,0.11,WeatherDisplay:10.37,2013-01-26 10:59:00,
2013-01-26 11:04:00,47.1,41.9,29.81,North,0,3.1,5.4,82,0.00,CLR,,0.11,WeatherDisplay:10.37,2013-01-26 11:04:00,
2013-01-26 11:09:00,46.9,41.7,29.81,North,0,1.6,5.8,82,0.00,CLR,,0.11,WeatherDisplay:10.37,2013-01-26 11:09:00,
2013-01-26 11:14:00,47.3,42.1,29.81,East,90,0.0,3.5,82,0.00,CLR,,0.11,WeatherDisplay:10.37,2013-01-26 11:14:00,
2013-01-26 11:19:00,47.5,41.3,29.81,North,0,3.8,8.1,79,0.00,CLR,,0.11,WeatherDisplay:10.37,2013-01-26 11:19:00,
2013-01-26 11:24:00,47.7,42.1,29.82,North,0,0.7,2.3,81,0.00,CLR,,0.11,WeatherDisplay:10.37,2013-01-26 11:24:00,
2013-01-26 11:29:00,48.6,43.0,29.81,SSW,202,0.0,2.3,81,0.00,CLR,,0.11,WeatherDisplay:10.37,2013-01-26 11:29:00,
2013-01-26 11:34:00,48.9,42.4,29.82,WSW,248,1.6,3.5,78,0.00,CLR,,0.11,WeatherDisplay:10.37,2013-01-26 11:34:00,
2013-01-26 11:40:00,48.7,41.8,29.82,NNW,338,2.2,6.9,77,0.00,CLR,,0.11,WeatherDisplay:10.37,2013-01-26 11:40:00,
2013-01-26 11:45:00,48.7,42.2,29.82,NW,315,1.6,4.6,78,0.00,CLR,,0.11,WeatherDisplay:10.37,2013-01-26 11:45:00,
2013-01-26 11:50:00,48.2,42.0,29.82,NW,315,0.7,5.8,79,0.00,CLR,,0.11,WeatherDisplay:10.37,2013-01-26 11:50:00,
2013-01-26 11:55:00,48.6,42.7,29.82,SE,135,0.0,2.3,80,0.00,CLR,,0.11,WeatherDisplay:10.37,2013-01-26 11:55:00,
2013-01-26 12:00:00,49.1,42.2,29.82,NW,315,1.6,8.1,77,0.00,CLR,,0.11,WeatherDisplay:10.37,2013-01-26 12:00:00,
2013-01-26 13:15:00,48.9,41.3,29.82,WSW,248,0.7,7.6,75,0.00,CLR,,0.11,WeatherDisplay:10.37,2013-01-26 13:15:00,
2013-01-26 13:20:00,48.4,41.2,29.82,North,0,0.7,4.6,76,0.00,CLR,,0.11,WeatherDisplay:10.37,2013-01-26 13:20:00,
2013-01-26 13:25:00,47.5,40.6,29.82,East,90,1.6,4.6,77,0.00,CLR,,0.11,WeatherDisplay:10.37,2013-01-26 13:25:00,
2013-01-26 13:30:00,47.3,40.8,29.82,NW,315,2.2,5.8,78,0.00,CLR,,0.11,WeatherDisplay:10.37,2013-01-26 13:30:00,
2013-01-26 13:35:00,47.1,40.9,29.82,West,270,1.6,4.6,79,0.00,CLR,,0.11,WeatherDisplay:10.37,2013-01-26 13:35:00,
2013-01-26 13:40:00,46.9,40.8,29.82,NNW,338,3.1,5.8,79,0.00,CLR,,0.11,WeatherDisplay:10.37,2013-01-26 13:40:00,
2013-01-26 13:45:00,47.3,41.1,29.83,NE,45,0.7,3.5,79,0.00,CLR,,0.11,WeatherDisplay:10.37,2013-01-26 13:45:00,
2013-01-26 13:50:00,47.7,41.1,29.82,North,0,2.2,5.8,78,0.00,CLR,,0.11,WeatherDisplay:10.37,2013-01-26 13:50:00,
2013-01-26 13:55:00,47.3,41.1,29.82,West,270,0.7,3.5,79,0.00,CLR,,0.11,WeatherDisplay:10.37,2013-01-26 13:55:00,
2013-01-26 14:00:00,47.3,41.1,29.81,North,0,0.7,8.1,79,0.00,CLR,,0.11,WeatherDisplay:10.37,2013-01-26 14:00:00,
2013-01-26 14:05:00,47.1,40.9,29.81,SE,135,0.0,4.6,79,0.00,CLR,,0.11,WeatherDisplay:10.37,2013-01-26 14:05:00,
2013-01-26 14:10:00,47.1,41.3,29.82,East,90,0.7,3.1,80,0.00,CLR,,0.11,WeatherDisplay:10.37,2013-01-26 14:10:00,
2013-01-26 14:15:00,46.9,41.1,29.82,NE,45,0.7,3.5,80,0.00,CLR,,0.11,WeatherDisplay:10.37,2013-01-26 14:15:00,
2013-01-26 14:20:00,46.8,40.9,29.82,NE,45,1.6,3.5,80,0.00,CLR,,0.11,WeatherDisplay:10.37,2013-01-26 14:20:00,
2013-01-26 14:25:00,46.8,41.2,29.82,NW,315,2.2,3.8,81,0.00,CLR,,0.11,WeatherDisplay:10.37,2013-01-26 14:25:00,
2013-01-26 14:30:00,46.8,41.2,29.82,North,0,0.7,5.8,81,0.00,CLR,,0.11,WeatherDisplay:10.37,2013-01-26 14:30:00,
2013-01-26 14:35:00,46.6,41.4,29.82,East,90,0.7,2.3,82,0.00,CLR,,0.11,WeatherDisplay:10.37,2013-01-26 14:35:00,
2013-01-26 14:40:00,46.6,41.4,29.82,East,90,0.7,3.5,82,0.00,CLR,,0.11,WeatherDisplay:10.37,2013-01-26 14:40:00,
2013-01-26 14:45:00,46.6,41.4,29.83,WSW,248,1.6,5.8,82,0.00,CLR,,0.11,WeatherDisplay:10.37,2013-01-26 14:45:00,
2013-01-26 14:50:00,46.6,41.4,29.83,East,90,0.0,3.5,82,0.00,CLR,,0.11,WeatherDisplay:10.37,2013-01-26 14:50:00,
2013-01-26 14:55:00,46.6,41.4,29.82,NE,45,0.7,5.8,82,0.00,CLR,,0.11,WeatherDisplay:10.37,2013-01-26 14:55:00,
2013-01-26 15:00:00,46.4,41.2,29.82,NE,45,1.6,3.8,82,0.00,CLR,,0.11,WeatherDisplay:10.37,2013-01-26 15:00:00,
2013-01-26 15:05:00,46.4,41.2,29.82,SE,135,1.6,5.4,82,0.00,CLR,,0.11,WeatherDisplay:10.37,2013-01-26 15:05:00,
2013-01-26 15:10:00,46.4,41.2,29.82,SE,135,0.7,2.3,82,0.00,CLR,,0.11,WeatherDisplay:10.37,2013-01-26 15:10:00,
2013-01-26 15:15:00,46.2,41.3,29.82,South,180,2.2,3.8,83,0.00,CLR,,0.11,WeatherDisplay:10.37,2013-01-26 15:15:00,
2013-01-26 15:20:00,46.2,41.7,29.82,East,90,1.6,3.5,84,0.00,CLR,,0.11,WeatherDisplay:10.37,2013-01-26 15:20:00,
2013-01-26 15:25:00,46.2,41.7,29.82,SE,135,0.7,2.2,84,0.00,CLR,,0.11,WeatherDisplay:10.37,2013-01-26 15:25:00,
2013-01-26 15:30:00,46.2,41.3,29.82,NNE,22,0.0,3.5,83,0.00,CLR,,0.11,WeatherDisplay:10.37,2013-01-26 15:30:00,
2013-01-26 15:35:00,46.2,41.3,29.82,WSW,248,2.2,6.0,83,0.00,CLR,,0.11,WeatherDisplay:10.37,2013-01-26 15:35:00,
2013-01-26 15:40:00,46.2,41.3,29.82,SE,135,0.7,3.5,83,0.00,CLR,,0.11,WeatherDisplay:10.37,2013-01-26 15:40:00,
2013-01-26 15:45:00,46.2,41.3,29.81,SE,135,0.0,5.8,83,0.00,CLR,,0.11,WeatherDisplay:10.37,2013-01-26 15:45:00,
2013-01-26 15:50:00,46.2,41.7,29.81,SE,135,0.7,4.6,84,0.00,CLR,,0.11,WeatherDisplay:10.37,2013-01-26 15:50:00,
2013-01-26 15:55:00,46.2,41.7,29.81,East,90,1.6,5.8,84,0.00,CLR,,0.11,WeatherDisplay:10.37,2013-01-26 15:55:00,
2013-01-26 16:00:00,46.0,41.5,29.81,SE,135,1.6,3.8,84,0.00,CLR,,0.11,WeatherDisplay:10.37,2013-01-26 16:00:00,
2013-01-26 16:05:00,45.9,41.3,29.81,SE,135,1.6,5.8,84,0.00,CLR,,0.11,WeatherDisplay:10.37,2013-01-26 16:05:00,
2013-01-26 16:10:00,45.9,41.3,29.81,South,180,3.1,6.9,84,0.00,CLR,,0.11,WeatherDisplay:10.37,2013-01-26 16:10:00,
2013-01-26 16:15:00,45.9,41.3,29.80,South,180,2.2,5.8,84,0.00,CLR,,0.11,WeatherDisplay:10.37,2013-01-26 16:15:00,
2013-01-26 16:20:00,45.7,41.1,29.80,SE,135,2.2,5.8,84,0.00,CLR,,0.11,WeatherDisplay:10.37,2013-01-26 16:20:00,
2013-01-26 16:25:00,45.5,41.3,29.81,South,180,2.2,5.8,85,0.00,CLR,,0.11,WeatherDisplay:10.37,2013-01-26 16:25:00,
2013-01-26 16:30:00,45.3,41.1,29.80,South,180,1.6,4.6,85,0.00,CLR,,0.11,WeatherDisplay:10.37,2013-01-26 16:30:00,
2013-01-26 16:35:00,45.3,41.1,29.80,South,180,1.6,5.8,85,0.00,CLR,,0.11,WeatherDisplay:10.37,2013-01-26 16:35:00,
2013-01-26 16:40:00,45.1,40.9,29.80,SE,135,3.1,5.4,85,0.00,CLR,,0.11,WeatherDisplay:10.37,2013-01-26 16:40:00,
2013-01-26 16:46:00,45.0,41.0,29.80,South,180,2.2,5.8,86,0.00,CLR,,0.11,WeatherDisplay:10.37,2013-01-26 16:46:00,
2013-01-26 16:51:00,44.8,40.8,29.80,South,180,1.6,4.6,86,0.00,CLR,,0.11,WeatherDisplay:10.37,2013-01-26 16:51:00,
2013-01-26 16:56:00,44.8,40.8,29.80,SE,135,1.6,3.5,86,0.00,CLR,,0.11,WeatherDisplay:10.37,2013-01-26 16:56:00,
2013-01-26 17:01:00,44.6,40.7,29.80,SE,135,0.7,3.5,86,0.00,CLR,,0.11,WeatherDisplay:10.37,2013-01-26 17:01:00,
2013-01-26 17:06:00,44.4,40.8,29.80,South,180,0.7,4.6,87,0.00,CLR,,0.11,WeatherDisplay:10.37,2013-01-26 17:06:00,
2013-01-26 17:11:00,44.2,40.6,29.80,South,180,3.8,6.0,87,0.00,CLR,,0.11,WeatherDisplay:10.37,2013-01-26 17:11:00,
2013-01-26 17:16:00,44.2,40.9,29.79,East,90,2.2,8.1,88,0.00,CLR,,0.11,WeatherDisplay:10.37,2013-01-26 17:16:00,
2013-01-26 17:21:00,43.9,40.8,29.78,South,180,2.2,5.8,89,0.00,CLR,,0.11,WeatherDisplay:10.37,2013-01-26 17:21:00,
2013-01-26 17:26:00,43.9,40.8,29.79,South,180,4.5,7.6,89,0.00,CLR,,0.11,WeatherDisplay:10.37,2013-01-26 17:26:00,
2013-01-26 17:31:00,43.9,41.1,29.79,SE,135,3.1,6.9,90,0.00,CLR,,0.11,WeatherDisplay:10.37,2013-01-26 17:31:00,
2013-01-26 17:36:00,43.7,41.0,29.79,South,180,4.5,6.9,90,0.00,CLR,,0.11,WeatherDisplay:10.37,2013-01-26 17:36:00,
2013-01-26 17:41:00,43.7,41.0,29.78,SE,135,3.1,5.8,90,0.00,CLR,,0.11,WeatherDisplay:10.37,2013-01-26 17:41:00,
2013-01-26 17:46:00,43.9,41.4,29.78,South,180,2.2,8.1,91,0.00,CLR,,0.11,WeatherDisplay:10.37,2013-01-26 17:46:00,
2013-01-26 17:51:00,44.1,41.6,29.78,SSE,158,3.8,8.1,91,0.00,CLR,,0.11,WeatherDisplay:10.37,2013-01-26 17:51:00,
2013-01-26 17:56:00,44.1,41.6,29.78,South,180,3.1,8.1,91,0.00,CLR,,0.11,WeatherDisplay:10.37,2013-01-26 17:56:00,
2013-01-26 18:01:00,44.2,41.8,29.77,South,180,3.1,5.8,91,0.00,CLR,,0.11,WeatherDisplay:10.37,2013-01-26 18:01:00,
2013-01-26 18:06:00,44.2,41.8,29.77,South,180,4.5,9.8,91,0.00,CLR,,0.11,WeatherDisplay:10.37,2013-01-26 18:06:00,
2013-01-26 18:11:00,44.4,42.2,29.77,SSE,158,3.8,8.1,92,0.00,CLR,,0.11,WeatherDisplay:10.37,2013-01-26 18:11:00,
2013-01-26 18:16:00,44.4,42.2,29.77,South,180,3.8,6.9,92,0.00,CLR,,0.11,WeatherDisplay:10.37,2013-01-26 18:16:00,
2013-01-26 18:21:00,44.4,42.5,29.76,East,90,2.2,8.1,93,0.00,CLR,,0.11,WeatherDisplay:10.37,2013-01-26 18:21:00,
2013-01-26 18:26:00,44.4,42.5,29.76,South,180,3.8,8.3,93,0.00,CLR,,0.11,WeatherDisplay:10.37,2013-01-26 18:26:00,
2013-01-26 18:31:00,44.4,42.5,29.76,SE,135,3.8,6.9,93,0.00,CLR,,0.11,WeatherDisplay:10.37,2013-01-26 18:31:00,
2013-01-26 18:36:00,44.4,42.5,29.75,South,180,1.6,5.8,93,0.00,CLR,,0.11,WeatherDisplay:10.37,2013-01-26 18:36:00,
2013-01-26 18:41:00,44.4,42.5,29.75,SSE,158,3.1,8.1,93,0.00,CLR,,0.11,WeatherDisplay:10.37,2013-01-26 18:41:00,
2013-01-26 18:46:00,44.6,43.0,29.74,SE,135,3.8,9.2,94,0.00,CLR,,0.11,WeatherDisplay:10.37,2013-01-26 18:46:00,
2013-01-26 18:51:00,44.6,43.0,29.74,South,180,4.5,8.1,94,0.00,CLR,,0.11,WeatherDisplay:10.37,2013-01-26 18:51:00,
2013-01-26 18:56:00,44.8,43.2,29.74,SSE,158,3.1,8.1,94,0.00,CLR,,0.11,WeatherDisplay:10.37,2013-01-26 18:56:00,
2013-01-26 19:01:00,44.8,43.2,29.74,ENE,68,3.8,9.2,94,0.00,CLR,,0.11,WeatherDisplay:10.37,2013-01-26 19:01:00,
2013-01-26 19:06:00,44.8,43.2,29.74,WSW,248,4.5,9.2,94,0.00,CLR,,0.11,WeatherDisplay:10.37,2013-01-26 19:06:00,
2013-01-26 19:11:00,44.8,43.2,29.73,South,180,3.8,8.1,94,0.00,CLR,,0.11,WeatherDisplay:10.37,2013-01-26 19:11:00,
2013-01-26 19:16:00,44.8,43.4,29.74,SSW,202,4.5,9.2,95,0.00,CLR,,0.11,WeatherDisplay:10.37,2013-01-26 19:16:00,
2013-01-26 19:21:00,45.0,43.6,29.73,SE,135,5.4,9.2,95,0.00,CLR,,0.11,WeatherDisplay:10.37,2013-01-26 19:21:00,
2013-01-26 19:26:00,45.0,43.6,29.73,SE,135,1.6,6.9,95,0.00,CLR,,0.11,WeatherDisplay:10.37,2013-01-26 19:26:00,
2013-01-26 19:31:00,44.8,43.4,29.72,SE,135,2.2,4.6,95,0.00,CLR,,0.11,WeatherDisplay:10.37,2013-01-26 19:31:00,
2013-01-26 19:36:00,45.0,43.6,29.72,South,180,5.4,10.4,95,0.00,CLR,,0.11,WeatherDisplay:10.37,2013-01-26 19:36:00,
2013-01-26 19:41:00,45.0,43.9,29.72,SE,135,3.8,9.2,96,0.00,CLR,,0.11,WeatherDisplay:10.37,2013-01-26 19:41:00,
2013-01-26 19:46:00,45.1,43.8,29.71,South,180,5.4,10.7,95,0.00,CLR,,0.11,WeatherDisplay:10.37,2013-01-26 19:46:00,
2013-01-26 19:51:00,45.1,43.8,29.71,SSW,202,4.5,8.1,95,0.00,CLR,,0.11,WeatherDisplay:10.37,2013-01-26 19:51:00,
2013-01-26 19:56:00,45.1,44.1,29.71,NNW,338,1.6,8.1,96,0.00,CLR,,0.11,WeatherDisplay:10.37,2013-01-26 19:56:00,
2013-01-26 20:01:00,45.3,44.2,29.72,South,180,4.5,6.9,96,0.00,CLR,,0.11,WeatherDisplay:10.37,2013-01-26 20:01:00,
2013-01-26 20:06:00,45.3,44.2,29.71,SE,135,1.6,5.8,96,0.00,CLR,,0.11,WeatherDisplay:10.37,2013-01-26 20:06:00,
2013-01-26 20:11:00,45.5,44.7,29.71,NE,45,2.2,6.0,97,0.00,CLR,,0.11,WeatherDisplay:10.37,2013-01-26 20:11:00,
2013-01-26 20:16:00,45.7,44.9,29.72,South,180,3.1,8.1,97,0.00,CLR,,0.11,WeatherDisplay:10.37,2013-01-26 20:16:00,
2013-01-26 20:21:00,45.9,45.1,29.71,North,0,3.1,7.6,97,0.00,CLR,,0.11,WeatherDisplay:10.37,2013-01-26 20:21:00,
2013-01-26 20:26:00,46.0,45.2,29.71,NW,315,3.1,6.0,97,0.00,CLR,,0.11,WeatherDisplay:10.37,2013-01-26 20:26:00,
2013-01-26 20:31:00,46.0,45.2,29.70,SE,135,3.1,8.3,97,0.00,CLR,,0.11,WeatherDisplay:10.37,2013-01-26 20:31:00,
2013-01-26 20:36:00,46.0,45.2,29.70,South,180,3.8,9.2,97,0.00,CLR,,0.11,WeatherDisplay:10.37,2013-01-26 20:36:00,
2013-01-26 20:41:00,46.0,45.5,29.69,East,90,3.8,9.8,98,0.01,RA,,0.12,WeatherDisplay:10.37,2013-01-26 20:41:00,
2013-01-26 20:47:00,46.0,45.5,29.69,ESE,112,4.5,9.2,98,0.01,RA,,0.12,WeatherDisplay:10.37,2013-01-26 20:47:00,
2013-01-26 20:52:00,45.9,45.6,29.68,East,90,3.1,9.2,99,0.01,,,0.12,WeatherDisplay:10.37,2013-01-26 20:52:00,
2013-01-26 20:57:00,45.9,45.9,29.68,SSE,158,3.8,8.1,100,0.01,CLR,,0.12,WeatherDisplay:10.37,2013-01-26 20:57:00,
2013-01-26 21:02:00,45.7,45.7,29.67,SE,135,4.5,10.4,100,0.02,RA,,0.13,WeatherDisplay:10.37,2013-01-26 21:02:00,
2013-01-26 21:07:00,45.9,45.9,29.67,South,180,7.6,11.4,100,0.02,RA,,0.13,WeatherDisplay:10.37,2013-01-26 21:07:00,
2013-01-26 21:12:00,45.9,45.9,29.66,SE,135,6.0,12.7,100,0.02,CLR,,0.13,WeatherDisplay:10.37,2013-01-26 21:12:00,
2013-01-26 21:17:00,45.7,45.7,29.66,South,180,3.8,6.9,100,0.02,CLR,,0.13,WeatherDisplay:10.37,2013-01-26 21:17:00,
2013-01-26 21:22:00,45.7,45.7,29.66,SE,135,3.1,13.8,100,0.04,RA,,0.14,WeatherDisplay:10.37,2013-01-26 21:22:00,
2013-01-26 21:27:00,45.7,45.7,29.65,East,90,6.9,10.7,100,0.04,RA,,0.14,WeatherDisplay:10.37,2013-01-26 21:27:00,
2013-01-26 21:32:00,45.7,45.7,29.64,WSW,248,5.4,11.5,100,0.04,,,0.14,WeatherDisplay:10.37,2013-01-26 21:32:00,
2013-01-26 21:37:00,45.7,45.7,29.64,SE,135,4.5,10.4,100,0.04,CLR,,0.14,WeatherDisplay:10.37,2013-01-26 21:37:00,
2013-01-26 21:42:00,45.5,45.5,29.64,SE,135,5.4,9.2,100,0.02,,,0.14,WeatherDisplay:10.37,2013-01-26 21:42:00,
2013-01-26 21:47:00,45.5,45.5,29.64,WSW,248,5.4,11.5,100,0.02,,,0.14,WeatherDisplay:10.37,2013-01-26 21:47:00,
2013-01-26 21:52:00,45.5,45.2,29.63,SE,135,4.5,9.8,99,0.02,CLR,,0.14,WeatherDisplay:10.37,2013-01-26 21:52:00,
2013-01-26 21:57:00,45.5,45.2,29.63,South,180,3.1,8.1,99,0.01,CLR,,0.14,WeatherDisplay:10.37,2013-01-26 21:57:00,
2013-01-26 22:02:00,45.5,45.2,29.63,WSW,248,3.8,8.1,99,0.01,CLR,,0.14,WeatherDisplay:10.37,2013-01-26 22:02:00,
2013-01-26 22:07:00,45.3,45.1,29.63,SE,135,3.8,9.2,99,0.01,CLR,,0.14,WeatherDisplay:10.37,2013-01-26 22:07:00,
2013-01-26 22:12:00,45.3,44.8,29.62,South,180,4.5,9.2,98,0.01,CLR,,0.14,WeatherDisplay:10.37,2013-01-26 22:12:00,
2013-01-26 22:17:00,45.3,44.8,29.62,South,180,5.4,13.8,98,0.01,CLR,,0.14,WeatherDisplay:10.37,2013-01-26 22:17:00,
2013-01-26 22:22:00,45.3,44.8,29.62,South,180,5.4,10.4,98,0.01,RA,,0.15,WeatherDisplay:10.37,2013-01-26 22:22:00,
2013-01-26 22:27:00,45.1,44.9,29.61,South,180,2.2,9.2,99,0.01,RA,,0.15,WeatherDisplay:10.37,2013-01-26 22:27:00,
2013-01-26 22:32:00,45.1,45.1,29.61,WSW,248,3.1,6.9,100,0.01,RA,,0.17,WeatherDisplay:10.37,2013-01-26 22:32:00,
2013-01-26 22:37:00,45.0,45.0,29.60,South,180,6.9,10.7,100,0.04,RA,,0.18,WeatherDisplay:10.37,2013-01-26 22:37:00,
2013-01-26 22:42:00,45.0,45.0,29.61,SSE,158,2.2,6.9,100,0.04,RA,,0.18,WeatherDisplay:10.37,2013-01-26 22:42:00,
2013-01-26 22:47:00,45.0,45.0,29.61,East,90,2.2,5.8,100,0.04,RA,,0.18,WeatherDisplay:10.37,2013-01-26 22:47:00,
2013-01-26 22:52:00,45.0,45.0,29.60,South,180,4.5,11.4,100,0.05,RA,,0.19,WeatherDisplay:10.37,2013-01-26 22:52:00,
2013-01-26 22:57:00,45.0,45.0,29.60,South,180,4.5,8.1,100,0.05,RA,,0.19,WeatherDisplay:10.37,2013-01-26 22:57:00,
2013-01-26 23:02:00,45.0,45.0,29.59,South,180,6.0,15.2,100,0.05,CLR,,0.19,WeatherDisplay:10.37,2013-01-26 23:02:00,
2013-01-26 23:07:00,45.0,44.7,29.59,West,270,5.4,12.7,99,0.05,,,0.19,WeatherDisplay:10.37,2013-01-26 23:07:00,
2013-01-26 23:12:00,45.1,44.9,29.59,SSE,158,3.8,9.2,99,0.05,CLR,,0.19,WeatherDisplay:10.37,2013-01-26 23:12:00,
2013-01-26 23:17:00,45.1,44.9,29.59,South,180,3.1,6.9,99,0.05,CLR,,0.19,WeatherDisplay:10.37,2013-01-26 23:17:00,
2013-01-26 23:22:00,45.1,44.9,29.58,SE,135,4.5,9.2,99,0.04,CLR,,0.19,WeatherDisplay:10.37,2013-01-26 23:22:00,
2013-01-26 23:27:00,45.3,44.8,29.58,SE,135,3.1,8.1,98,0.04,CLR,,0.19,WeatherDisplay:10.37,2013-01-26 23:27:00,
2013-01-26 23:32:00,45.3,44.8,29.57,WSW,248,3.1,10.4,98,0.04,CLR,,0.19,WeatherDisplay:10.37,2013-01-26 23:32:00,
2013-01-26 23:37:00,45.5,44.7,29.57,South,180,3.1,9.2,97,0.02,CLR,,0.19,WeatherDisplay:10.37,2013-01-26 23:37:00,
2013-01-26 23:42:00,45.7,44.6,29.56,SE,135,5.4,9.2,96,0.01,CLR,,0.19,WeatherDisplay:10.37,2013-01-26 23:42:00,
2013-01-26 23:47:00,45.9,44.5,29.55,South,180,6.9,16.1,95,0.01,CLR,,0.19,WeatherDisplay:10.37,2013-01-26 23:47:00,
2013-01-26 23:52:00,45.9,44.5,29.55,SE,135,3.1,8.1,95,0.00,CLR,,0.19,WeatherDisplay:10.37,2013-01-26 23:52:00,
2013-01-26 23:57:00,46.0,45.0,29.55,South,180,6.0,10.7,96,0.00,CLR,,0.19,WeatherDisplay:10.37,2013-01-26 23:57:00,